sensor_id;sensor_type;location;lat;lon;timestamp;pressure;altitude;pressure_sealevel;temperature;humidity
70304;BME280;57712;48.752;11.348;2023-04-07T00:01:23;97566.53;;;3.17;100.00
70304;BME280;57712;48.752;11.348;2023-04-07T00:03:49;97563.13;;;3.24;100.00
70304;BME280;57712;48.752;11.348;2023-04-07T00:06:16;97558.44;;;3.21;100.00
70304;BME280;57712;48.752;11.348;2023-04-07T00:08:43;97553.78;;;3.18;100.00
70304;BME280;57712;48.752;11.348;2023-04-07T00:11:09;97553.25;;;3.09;100.00
70304;BME280;57712;48.752;11.348;2023-04-07T00:13:36;97552.09;;;3.06;100.00
70304;BME280;57712;48.752;11.348;2023-04-07T00:16:03;97560.25;;;3.10;100.00
70304;BME280;57712;48.752;11.348;2023-04-07T00:18:29;97549.69;;;3.01;100.00
70304;BME280;57712;48.752;11.348;2023-04-07T00:20:56;97539.94;;;2.93;100.00
70304;BME280;57712;48.752;11.348;2023-04-07T00:23:22;97538.69;;;2.87;100.00
70304;BME280;57712;48.752;11.348;2023-04-07T00:25:49;97538.25;;;2.81;100.00
70304;BME280;57712;48.752;11.348;2023-04-07T00:28:15;97531.59;;;2.75;100.00
70304;BME280;57712;48.752;11.348;2023-04-07T00:30:42;97530.25;;;2.62;100.00
70304;BME280;57712;48.752;11.348;2023-04-07T00:33:09;97531.72;;;2.56;100.00
70304;BME280;57712;48.752;11.348;2023-04-07T00:35:35;97520.38;;;2.47;100.00
70304;BME280;57712;48.752;11.348;2023-04-07T00:38:02;97521.09;;;2.44;100.00
70304;BME280;57712;48.752;11.348;2023-04-07T00:40:29;97514.16;;;2.43;100.00
70304;BME280;57712;48.752;11.348;2023-04-07T00:42:56;97516.44;;;2.41;100.00
70304;BME280;57712;48.752;11.348;2023-04-07T00:45:22;97518.50;;;2.24;100.00
70304;BME280;57712;48.752;11.348;2023-04-07T00:47:49;97511.66;;;2.30;100.00
70304;BME280;57712;48.752;11.348;2023-04-07T00:50:17;97505.81;;;2.28;100.00
70304;BME280;57712;48.752;11.348;2023-04-07T00:52:44;97497.09;;;2.39;100.00
70304;BME280;57712;48.752;11.348;2023-04-07T00:55:11;97502.00;;;2.29;100.00
70304;BME280;57712;48.752;11.348;2023-04-07T00:57:38;97506.97;;;2.27;100.00
70304;BME280;57712;48.752;11.348;2023-04-07T01:00:05;97508.44;;;2.21;100.00
70304;BME280;57712;48.752;11.348;2023-04-07T01:05:17;97505.50;;;2.07;100.00
70304;BME280;57712;48.752;11.348;2023-04-07T01:08:11;97498.00;;;2.20;100.00
70304;BME280;57712;48.752;11.348;2023-04-07T01:10:55;97500.00;;;2.26;100.00
70304;BME280;57712;48.752;11.348;2023-04-07T01:13:42;97493.88;;;2.29;100.00
70304;BME280;57712;48.752;11.348;2023-04-07T01:16:15;97499.28;;;2.29;100.00
70304;BME280;57712;48.752;11.348;2023-04-07T01:18:43;97497.72;;;2.28;100.00
70304;BME280;57712;48.752;11.348;2023-04-07T01:21:16;97500.84;;;2.30;100.00
70304;BME280;57712;48.752;11.348;2023-04-07T01:26:38;97500.53;;;2.36;100.00
70304;BME280;57712;48.752;11.348;2023-04-07T01:29:28;97494.44;;;2.16;100.00
70304;BME280;57712;48.752;11.348;2023-04-07T01:31:59;97502.19;;;2.17;100.00
70304;BME280;57712;48.752;11.348;2023-04-07T01:34:29;97492.25;;;2.25;100.00
70304;BME280;57712;48.752;11.348;2023-04-07T01:36:57;97498.97;;;2.35;100.00
70304;BME280;57712;48.752;11.348;2023-04-07T01:39:27;97495.13;;;2.36;100.00
70304;BME280;57712;48.752;11.348;2023-04-07T01:41:55;97500.53;;;2.36;100.00
70304;BME280;57712;48.752;11.348;2023-04-07T01:44:23;97497.63;;;2.21;100.00
70304;BME280;57712;48.752;11.348;2023-04-07T01:46:51;97487.78;;;2.36;100.00
70304;BME280;57712;48.752;11.348;2023-04-07T01:49:19;97491.69;;;2.39;100.00
70304;BME280;57712;48.752;11.348;2023-04-07T01:51:47;97490.84;;;2.35;100.00
70304;BME280;57712;48.752;11.348;2023-04-07T01:54:16;97488.66;;;2.44;100.00
70304;BME280;57712;48.752;11.348;2023-04-07T01:56:44;97484.34;;;2.39;100.00
70304;BME280;57712;48.752;11.348;2023-04-07T01:59:11;97486.22;;;2.35;100.00
70304;BME280;57712;48.752;11.348;2023-04-07T02:01:37;97486.19;;;2.31;100.00
70304;BME280;57712;48.752;11.348;2023-04-07T02:04:24;97480.72;;;2.28;100.00
70304;BME280;57712;48.752;11.348;2023-04-07T02:06:55;97488.81;;;2.28;100.00
70304;BME280;57712;48.752;11.348;2023-04-07T02:09:26;97484.63;;;2.30;100.00
70304;BME280;57712;48.752;11.348;2023-04-07T02:11:57;97488.28;;;2.19;100.00
70304;BME280;57712;48.752;11.348;2023-04-07T02:14:26;97485.72;;;2.26;100.00
70304;BME280;57712;48.752;11.348;2023-04-07T02:16:53;97484.47;;;2.20;100.00
70304;BME280;57712;48.752;11.348;2023-04-07T02:19:21;97479.78;;;2.17;100.00
70304;BME280;57712;48.752;11.348;2023-04-07T02:21:48;97483.69;;;2.19;100.00
70304;BME280;57712;48.752;11.348;2023-04-07T02:24:20;97485.97;;;2.17;100.00
70304;BME280;57712;48.752;11.348;2023-04-07T02:26:47;97493.03;;;2.25;100.00
70304;BME280;57712;48.752;11.348;2023-04-07T02:29:14;97485.25;;;2.20;100.00
70304;BME280;57712;48.752;11.348;2023-04-07T02:31:40;97484.81;;;2.18;100.00
70304;BME280;57712;48.752;11.348;2023-04-07T02:34:07;97486.06;;;2.24;100.00
70304;BME280;57712;48.752;11.348;2023-04-07T02:36:34;97484.47;;;2.20;100.00
70304;BME280;57712;48.752;11.348;2023-04-07T02:39:01;97487.03;;;2.09;100.00
70304;BME280;57712;48.752;11.348;2023-04-07T02:41:27;97482.91;;;2.19;100.00
70304;BME280;57712;48.752;11.348;2023-04-07T02:43:54;97483.59;;;2.12;100.00
70304;BME280;57712;48.752;11.348;2023-04-07T02:46:21;97483.69;;;2.19;100.00
70304;BME280;57712;48.752;11.348;2023-04-07T02:48:47;97479.78;;;2.17;100.00
70304;BME280;57712;48.752;11.348;2023-04-07T02:51:14;97485.25;;;2.20;100.00
70304;BME280;57712;48.752;11.348;2023-04-07T02:53:41;97485.16;;;2.13;100.00
70304;BME280;57712;48.752;11.348;2023-04-07T02:56:07;97480.88;;;2.12;100.00
70304;BME280;57712;48.752;11.348;2023-04-07T02:58:34;97484.13;;;2.21;100.00
70304;BME280;57712;48.752;11.348;2023-04-07T03:01:00;97479.94;;;2.27;100.00
70304;BME280;57712;48.752;11.348;2023-04-07T03:03:27;97476.09;;;2.28;100.00
70304;BME280;57712;48.752;11.348;2023-04-07T03:05:54;97474.09;;;2.22;100.00
70304;BME280;57712;48.752;11.348;2023-04-07T03:08:20;97473.66;;;2.20;100.00
70304;BME280;57712;48.752;11.348;2023-04-07T03:10:47;97476.00;;;2.21;100.00
70304;BME280;57712;48.752;11.348;2023-04-07T03:13:13;97467.75;;;2.11;100.00
70304;BME280;57712;48.752;11.348;2023-04-07T03:15:44;97471.31;;;2.18;100.00
70304;BME280;57712;48.752;11.348;2023-04-07T03:18:11;97472.41;;;2.14;100.00
70304;BME280;57712;48.752;11.348;2023-04-07T03:20:37;97470.38;;;2.07;100.00
70304;BME280;57712;48.752;11.348;2023-04-07T03:23:07;97461.66;;;2.17;100.00
70304;BME280;57712;48.752;11.348;2023-04-07T03:25:33;97466.53;;;2.08;100.00
70304;BME280;57712;48.752;11.348;2023-04-07T03:28:00;97463.41;;;2.06;100.00
70304;BME280;57712;48.752;11.348;2023-04-07T03:30:27;97458.88;;;2.10;100.00
70304;BME280;57712;48.752;11.348;2023-04-07T03:32:53;97462.09;;;2.19;100.00
70304;BME280;57712;48.752;11.348;2023-04-07T03:35:20;97461.72;;;2.21;100.00
70304;BME280;57712;48.752;11.348;2023-04-07T03:37:46;97459.47;;;2.26;100.00
70304;BME280;57712;48.752;11.348;2023-04-07T03:40:13;97457.03;;;2.18;100.00
70304;BME280;57712;48.752;11.348;2023-04-07T03:42:42;97449.38;;;2.23;100.00
70304;BME280;57712;48.752;11.348;2023-04-07T03:45:09;97447.00;;;2.18;100.00
70304;BME280;57712;48.752;11.348;2023-04-07T03:47:35;97455.47;;;2.17;100.00
70304;BME280;57712;48.752;11.348;2023-04-07T03:50:02;97449.69;;;2.18;100.00
70304;BME280;57712;48.752;11.348;2023-04-07T03:52:29;97446.16;;;2.14;100.00
70304;BME280;57712;48.752;11.348;2023-04-07T03:54:56;97451.38;;;2.00;100.00
70304;BME280;57712;48.752;11.348;2023-04-07T03:57:22;97450.94;;;1.98;100.00
70304;BME280;57712;48.752;11.348;2023-04-07T03:59:49;97456.34;;;1.98;100.00
70304;BME280;57712;48.752;11.348;2023-04-07T04:02:17;97451.84;;;2.06;100.00
70304;BME280;57712;48.752;11.348;2023-04-07T04:04:44;97453.47;;;2.10;100.00
70304;BME280;57712;48.752;11.348;2023-04-07T04:07:11;97444.50;;;2.06;100.00
70304;BME280;57712;48.752;11.348;2023-04-07T04:09:37;97449.50;;;2.04;100.00
70304;BME280;57712;48.752;11.348;2023-04-07T04:12:04;97443.69;;;2.02;100.00
70304;BME280;57712;48.752;11.348;2023-04-07T04:14:30;97440.13;;;1.98;100.00
70304;BME280;57712;48.752;11.348;2023-04-07T04:16:57;97452.56;;;2.02;100.00
70304;BME280;57712;48.752;11.348;2023-04-07T04:19:24;97449.19;;;1.83;100.00
70304;BME280;57712;48.752;11.348;2023-04-07T04:21:51;97448.44;;;1.86;100.00
70304;BME280;57712;48.752;11.348;2023-04-07T04:24:18;97440.97;;;2.02;100.00
70304;BME280;57712;48.752;11.348;2023-04-07T04:26:44;97440.56;;;2.00;100.00
70304;BME280;57712;48.752;11.348;2023-04-07T04:29:11;97434.72;;;1.98;100.00
70304;BME280;57712;48.752;11.348;2023-04-07T04:31:37;97437.03;;;1.96;100.00
70304;BME280;57712;48.752;11.348;2023-04-07T04:34:04;97429.69;;;1.96;100.00
70304;BME280;57712;48.752;11.348;2023-04-07T04:36:30;97441.75;;;2.02;100.00
70304;BME280;57712;48.752;11.348;2023-04-07T04:38:57;97438.28;;;2.02;100.00
70304;BME280;57712;48.752;11.348;2023-04-07T04:41:23;97434.03;;;2.01;100.00
70304;BME280;57712;48.752;11.348;2023-04-07T04:43:50;97436.41;;;2.06;100.00
70304;BME280;57712;48.752;11.348;2023-04-07T04:46:20;97442.66;;;2.10;100.00
70304;BME280;57712;48.752;11.348;2023-04-07T04:48:46;97443.47;;;2.14;100.00
70304;BME280;57712;48.752;11.348;2023-04-07T04:51:13;97439.72;;;2.22;100.00
70304;BME280;57712;48.752;11.348;2023-04-07T04:53:39;97438.59;;;2.23;100.00
70304;BME280;57712;48.752;11.348;2023-04-07T04:56:07;97447.94;;;2.29;100.00
70304;BME280;57712;48.752;11.348;2023-04-07T04:58:34;97447.66;;;2.38;100.00
70304;BME280;57712;48.752;11.348;2023-04-07T05:01:00;97443.03;;;2.39;100.00
70304;BME280;57712;48.752;11.348;2023-04-07T05:03:27;97443.94;;;2.50;100.00
70304;BME280;57712;48.752;11.348;2023-04-07T05:05:54;97446.63;;;2.50;100.00
70304;BME280;57712;48.752;11.348;2023-04-07T05:08:21;97443.94;;;2.50;100.00
70304;BME280;57712;48.752;11.348;2023-04-07T05:10:47;97437.09;;;2.59;100.00
70304;BME280;57712;48.752;11.348;2023-04-07T05:13:14;97446.56;;;2.73;100.00
70304;BME280;57712;48.752;11.348;2023-04-07T05:15:41;97435.88;;;2.83;100.00
70304;BME280;57712;48.752;11.348;2023-04-07T05:18:07;97440.38;;;2.72;100.00
70304;BME280;57712;48.752;11.348;2023-04-07T05:20:34;97445.13;;;2.82;100.00
70304;BME280;57712;48.752;11.348;2023-04-07T05:23:01;97436.59;;;2.80;100.00
70304;BME280;57712;48.752;11.348;2023-04-07T05:25:28;97443.94;;;2.50;100.00
70304;BME280;57712;48.752;11.348;2023-04-07T05:27:55;97437.22;;;2.67;100.00
70304;BME280;57712;48.752;11.348;2023-04-07T05:30:21;97438.88;;;2.78;100.00
70304;BME280;57712;48.752;11.348;2023-04-07T05:32:48;97441.09;;;2.69;100.00
70304;BME280;57712;48.752;11.348;2023-04-07T05:35:14;97442.25;;;2.68;100.00
70304;BME280;57712;48.752;11.348;2023-04-07T05:37:41;97446.50;;;2.69;100.00
70304;BME280;57712;48.752;11.348;2023-04-07T05:40:08;97444.38;;;2.85;100.00
70304;BME280;57712;48.752;11.348;2023-04-07T05:42:35;97436.78;;;2.95;100.00
70304;BME280;57712;48.752;11.348;2023-04-07T05:45:02;97437.97;;;3.01;100.00
70304;BME280;57712;48.752;11.348;2023-04-07T05:47:28;97433.81;;;3.10;100.00
70304;BME280;57712;48.752;11.348;2023-04-07T05:49:55;97438.88;;;3.12;100.00
70304;BME280;57712;48.752;11.348;2023-04-07T05:52:21;97434.78;;;3.29;100.00
70304;BME280;57712;48.752;11.348;2023-04-07T05:54:48;97444.25;;;3.45;100.00
70304;BME280;57712;48.752;11.348;2023-04-07T05:57:14;97439.56;;;3.42;100.00
70304;BME280;57712;48.752;11.348;2023-04-07T05:59:41;97441.16;;;3.47;100.00
70304;BME280;57712;48.752;11.348;2023-04-07T06:02:08;97436.53;;;3.47;100.00
70304;BME280;57712;48.752;11.348;2023-04-07T06:04:34;97434.22;;;3.50;100.00
70304;BME280;57712;48.752;11.348;2023-04-07T06:07:02;97444.28;;;3.53;100.00
70304;BME280;57712;48.752;11.348;2023-04-07T06:09:28;97439.81;;;3.71;100.00
70304;BME280;57712;48.752;11.348;2023-04-07T06:11:55;97452.19;;;3.72;100.00
70304;BME280;57712;48.752;11.348;2023-04-07T06:14:23;97445.31;;;3.82;100.00
70304;BME280;57712;48.752;11.348;2023-04-07T06:16:49;97445.50;;;4.07;100.00
70304;BME280;57712;48.752;11.348;2023-04-07T06:19:16;97440.72;;;3.86;100.00
70304;BME280;57712;48.752;11.348;2023-04-07T06:21:42;97443.00;;;3.84;100.00
70304;BME280;57712;48.752;11.348;2023-04-07T06:24:09;97442.56;;;4.33;100.00
70304;BME280;57712;48.752;11.348;2023-04-07T06:26:36;97443.41;;;4.48;100.00
70304;BME280;57712;48.752;11.348;2023-04-07T06:29:04;97440.22;;;4.31;100.00
70304;BME280;57712;48.752;11.348;2023-04-07T06:31:31;97444.22;;;4.48;100.00
70304;BME280;57712;48.752;11.348;2023-04-07T06:33:58;97442.81;;;4.83;100.00
70304;BME280;57712;48.752;11.348;2023-04-07T06:36:24;97438.94;;;4.87;100.00
70304;BME280;57712;48.752;11.348;2023-04-07T06:38:52;97445.22;;;5.16;100.00
70304;BME280;57712;48.752;11.348;2023-04-07T06:41:19;97442.13;;;5.18;100.00
70304;BME280;57712;48.752;11.348;2023-04-07T06:43:46;97440.56;;;5.17;100.00
70304;BME280;57712;48.752;11.348;2023-04-07T06:46:13;97438.25;;;5.15;100.00
70304;BME280;57712;48.752;11.348;2023-04-07T06:48:40;97440.63;;;5.38;100.00
70304;BME280;57712;48.752;11.348;2023-04-07T06:51:06;97442.97;;;5.54;100.00
70304;BME280;57712;48.752;11.348;2023-04-07T06:53:33;97429.78;;;5.56;100.00
70304;BME280;57712;48.752;11.348;2023-04-07T06:56:07;97427.44;;;5.58;100.00
70304;BME280;57712;48.752;11.348;2023-04-07T06:58:35;97429.78;;;5.53;100.00
70304;BME280;57712;48.752;11.348;2023-04-07T07:01:03;97426.69;;;5.79;100.00
70304;BME280;57712;48.752;11.348;2023-04-07T07:03:31;97418.16;;;5.84;100.00
70304;BME280;57712;48.752;11.348;2023-04-07T07:05:58;97418.94;;;5.63;100.00
70304;BME280;57712;48.752;11.348;2023-04-07T07:08:26;97430.97;;;5.98;100.00
70304;BME280;57712;48.752;11.348;2023-04-07T07:10:54;97423.19;;;5.71;100.00
70304;BME280;57712;48.752;11.348;2023-04-07T07:13:23;97427.06;;;5.77;100.00
70304;BME280;57712;48.752;11.348;2023-04-07T07:15:50;97417.38;;;6.16;100.00
70304;BME280;57712;48.752;11.348;2023-04-07T07:18:17;97419.63;;;6.35;100.00
70304;BME280;57712;48.752;11.348;2023-04-07T07:20:44;97416.50;;;6.51;100.00
70304;BME280;57712;48.752;11.348;2023-04-07T07:23:10;97426.50;;;6.79;100.00
70304;BME280;57712;48.752;11.348;2023-04-07T07:25:37;97423.97;;;7.20;100.00
70304;BME280;57712;48.752;11.348;2023-04-07T07:28:04;97418.66;;;6.99;100.00
70304;BME280;57712;48.752;11.348;2023-04-07T07:30:30;97414.56;;;7.28;100.00
70304;BME280;57712;48.752;11.348;2023-04-07T07:32:57;97418.31;;;7.52;100.00
70304;BME280;57712;48.752;11.348;2023-04-07T07:35:24;97420.47;;;7.75;100.00
70304;BME280;57712;48.752;11.348;2023-04-07T07:37:51;97424.47;;;7.63;100.00
70304;BME280;57712;48.752;11.348;2023-04-07T07:40:18;97423.78;;;7.48;100.00
70304;BME280;57712;48.752;11.348;2023-04-07T07:42:45;97426.53;;;7.97;100.00
70304;BME280;57712;48.752;11.348;2023-04-07T07:45:11;97426.94;;;7.92;100.00
70304;BME280;57712;48.752;11.348;2023-04-07T07:47:39;97419.44;;;8.06;100.00
70304;BME280;57712;48.752;11.348;2023-04-07T07:50:06;97415.34;;;7.84;100.00
70304;BME280;57712;48.752;11.348;2023-04-07T07:52:33;97412.97;;;7.86;100.00
70304;BME280;57712;48.752;11.348;2023-04-07T07:54:59;97417.72;;;8.23;100.00
70304;BME280;57712;48.752;11.348;2023-04-07T07:57:26;97422.28;;;8.33;100.00
70304;BME280;57712;48.752;11.348;2023-04-07T07:59:52;97416.41;;;7.97;100.00
70304;BME280;57712;48.752;11.348;2023-04-07T08:02:19;97417.59;;;8.37;100.00
70304;BME280;57712;48.752;11.348;2023-04-07T08:04:46;97417.13;;;8.43;100.00
70304;BME280;57712;48.752;11.348;2023-04-07T08:07:12;97423.25;;;8.54;100.00
70304;BME280;57712;48.752;11.348;2023-04-07T08:09:39;97424.16;;;8.44;100.00
70304;BME280;57712;48.752;11.348;2023-04-07T08:12:05;97414.94;;;8.64;100.00
70304;BME280;57712;48.752;11.348;2023-04-07T08:14:32;97416.00;;;9.05;100.00
70304;BME280;57712;48.752;11.348;2023-04-07T08:16:58;97421.44;;;9.08;100.00
70304;BME280;57712;48.752;11.348;2023-04-07T08:19:25;97421.16;;;9.30;100.00
70304;BME280;57712;48.752;11.348;2023-04-07T08:21:52;97419.47;;;9.39;100.00
70304;BME280;57712;48.752;11.348;2023-04-07T08:24:18;97422.91;;;9.43;100.00
70304;BME280;57712;48.752;11.348;2023-04-07T08:26:45;97415.91;;;9.69;100.00
70304;BME280;57712;48.752;11.348;2023-04-07T08:29:11;97418.22;;;9.71;100.00
70304;BME280;57712;48.752;11.348;2023-04-07T08:31:38;97423.97;;;10.00;100.00
70304;BME280;57712;48.752;11.348;2023-04-07T08:34:05;97415.06;;;9.72;100.00
70304;BME280;57712;48.752;11.348;2023-04-07T08:36:32;97409.50;;;9.76;100.00
70304;BME280;57712;48.752;11.348;2023-04-07T08:38:58;97424.69;;;10.04;100.00
70304;BME280;57712;48.752;11.348;2023-04-07T08:41:38;97421.72;;;9.95;100.00
70304;BME280;57712;48.752;11.348;2023-04-07T08:44:06;97416.13;;;10.02;100.00
70304;BME280;57712;48.752;11.348;2023-04-07T08:46:33;97420.09;;;9.97;100.00
70304;BME280;57712;48.752;11.348;2023-04-07T08:49:00;97411.72;;;10.08;100.00
70304;BME280;57712;48.752;11.348;2023-04-07T08:51:29;97410.06;;;10.37;100.00
70304;BME280;57712;48.752;11.348;2023-04-07T08:54:03;97417.91;;;11.15;100.00
70304;BME280;57712;48.752;11.348;2023-04-07T08:56:32;97415.22;;;10.75;100.00
70304;BME280;57712;48.752;11.348;2023-04-07T08:59:04;97411.19;;;10.99;100.00
70304;BME280;57712;48.752;11.348;2023-04-07T09:01:33;97408.31;;;11.23;100.00
70304;BME280;57712;48.752;11.348;2023-04-07T09:04:04;97411.31;;;11.48;100.00
70304;BME280;57712;48.752;11.348;2023-04-07T09:06:33;97414.31;;;11.70;100.00
70304;BME280;57712;48.752;11.348;2023-04-07T09:09:01;97411.41;;;10.69;100.00
70304;BME280;57712;48.752;11.348;2023-04-07T09:11:28;97413.66;;;11.30;100.00
70304;BME280;57712;48.752;11.348;2023-04-07T09:13:55;97406.56;;;10.96;100.00
70304;BME280;57712;48.752;11.348;2023-04-07T09:16:22;97409.19;;;10.64;100.00
70304;BME280;57712;48.752;11.348;2023-04-07T09:18:52;97406.09;;;11.18;100.00
70304;BME280;57712;48.752;11.348;2023-04-07T09:21:18;97413.97;;;11.16;100.00
70304;BME280;57712;48.752;11.348;2023-04-07T09:23:45;97409.56;;;11.38;100.00
70304;BME280;57712;48.752;11.348;2023-04-07T09:26:22;97407.56;;;11.91;100.00
70304;BME280;57712;48.752;11.348;2023-04-07T09:28:59;97412.03;;;12.01;100.00
70304;BME280;57712;48.752;11.348;2023-04-07T09:31:49;97411.69;;;11.99;100.00
70304;BME280;57712;48.752;11.348;2023-04-07T09:36:51;97408.13;;;12.60;96.24
70304;BME280;57712;48.752;11.348;2023-04-07T09:39:18;97400.19;;;12.04;98.61
70304;BME280;57712;48.752;11.348;2023-04-07T09:41:45;97406.78;;;12.52;93.31
70304;BME280;57712;48.752;11.348;2023-04-07T09:44:12;97398.56;;;12.36;89.14
70304;BME280;57712;48.752;11.348;2023-04-07T09:46:48;97396.09;;;12.41;92.53
70304;BME280;57712;48.752;11.348;2023-04-07T09:49:15;97394.44;;;12.73;100.00
70304;BME280;57712;48.752;11.348;2023-04-07T09:51:51;97397.75;;;11.74;95.69
70304;BME280;57712;48.752;11.348;2023-04-07T09:54:38;97397.91;;;11.67;96.23
70304;BME280;57712;48.752;11.348;2023-04-07T09:57:06;97402.38;;;11.77;100.00
70304;BME280;57712;48.752;11.348;2023-04-07T09:59:34;97396.56;;;12.07;98.65
70304;BME280;57712;48.752;11.348;2023-04-07T10:02:02;97391.38;;;11.80;93.81
70304;BME280;57712;48.752;11.348;2023-04-07T10:04:29;97394.41;;;12.31;88.21
70304;BME280;57712;48.752;11.348;2023-04-07T10:06:57;97391.38;;;12.42;93.92
70304;BME280;57712;48.752;11.348;2023-04-07T10:09:26;97390.97;;;12.56;89.05
70304;BME280;57712;48.752;11.348;2023-04-07T10:11:54;97396.34;;;12.60;88.53
70304;BME280;57712;48.752;11.348;2023-04-07T10:14:28;97387.31;;;12.01;96.05
70304;BME280;57712;48.752;11.348;2023-04-07T10:16:59;97386.63;;;12.42;94.16
70304;BME280;57712;48.752;11.348;2023-04-07T10:19:30;97380.88;;;12.37;92.29
70304;BME280;57712;48.752;11.348;2023-04-07T10:21:58;97391.38;;;12.42;92.93
70304;BME280;57712;48.752;11.348;2023-04-07T10:24:44;97389.91;;;11.92;90.64
70304;BME280;57712;48.752;11.348;2023-04-07T10:27:18;97387.50;;;11.78;96.79
70304;BME280;57712;48.752;11.348;2023-04-07T10:29:49;97390.09;;;12.30;99.22
70304;BME280;57712;48.752;11.348;2023-04-07T10:32:16;97378.84;;;12.41;88.35
70304;BME280;57712;48.752;11.348;2023-04-07T10:37:17;97380.13;;;13.20;89.97
70304;BME280;57712;48.752;11.348;2023-04-07T10:39:47;97383.97;;;13.22;88.02
70304;BME280;57712;48.752;11.348;2023-04-07T10:45:03;97382.97;;;12.33;91.42
70304;BME280;57712;48.752;11.348;2023-04-07T10:47:30;97379.47;;;12.61;97.48
70304;BME280;57712;48.752;11.348;2023-04-07T10:50:19;97389.25;;;13.17;94.63
70304;BME280;57712;48.752;11.348;2023-04-07T10:53:08;97382.69;;;12.73;95.50
70304;BME280;57712;48.752;11.348;2023-04-07T10:55:36;97381.19;;;12.55;90.77
70304;BME280;57712;48.752;11.348;2023-04-07T10:58:22;97382.28;;;12.58;92.12
70304;BME280;57712;48.752;11.348;2023-04-07T11:03:52;97382.53;;;12.34;91.56
70304;BME280;57712;48.752;11.348;2023-04-07T11:06:19;97382.28;;;12.58;93.38
70304;BME280;57712;48.752;11.348;2023-04-07T11:08:47;97382.31;;;13.63;92.26
70304;BME280;57712;48.752;11.348;2023-04-07T11:11:36;97385.59;;;13.07;90.32
70304;BME280;57712;48.752;11.348;2023-04-07T11:14:04;97374.50;;;13.62;83.10
70304;BME280;57712;48.752;11.348;2023-04-07T11:16:38;97381.78;;;14.28;79.42
70304;BME280;57712;48.752;11.348;2023-04-07T11:19:06;97372.69;;;14.40;79.23
70304;BME280;57712;48.752;11.348;2023-04-07T11:21:32;97371.94;;;14.62;73.23
70304;BME280;57712;48.752;11.348;2023-04-07T11:23:59;97370.25;;;13.48;78.67
70304;BME280;57712;48.752;11.348;2023-04-07T11:26:26;97369.41;;;12.96;80.09
70304;BME280;57712;48.752;11.348;2023-04-07T11:28:54;97366.84;;;12.77;85.49
70304;BME280;57712;48.752;11.348;2023-04-07T11:31:22;97376.75;;;12.87;89.43
70304;BME280;57712;48.752;11.348;2023-04-07T11:34:03;97374.19;;;12.67;86.40
70304;BME280;57712;48.752;11.348;2023-04-07T11:36:36;97372.75;;;12.62;82.49
70304;BME280;57712;48.752;11.348;2023-04-07T11:39:03;97374.03;;;12.58;83.96
70304;BME280;57712;48.752;11.348;2023-04-07T11:41:31;97373.84;;;12.65;81.21
70304;BME280;57712;48.752;11.348;2023-04-07T11:44:10;97376.59;;;12.36;84.29
70304;BME280;57712;48.752;11.348;2023-04-07T11:46:58;97371.22;;;12.61;86.65
70304;BME280;57712;48.752;11.348;2023-04-07T11:49:26;97371.56;;;12.76;88.63
70304;BME280;57712;48.752;11.348;2023-04-07T11:52:01;97376.16;;;12.66;84.95
70304;BME280;57712;48.752;11.348;2023-04-07T11:54:42;97371.84;;;13.07;86.07
70304;BME280;57712;48.752;11.348;2023-04-07T11:57:09;97374.41;;;13.14;84.34
70304;BME280;57712;48.752;11.348;2023-04-07T11:59:41;97367.63;;;12.77;78.98
70304;BME280;57712;48.752;11.348;2023-04-07T12:02:08;97367.41;;;12.71;82.47
70304;BME280;57712;48.752;11.348;2023-04-07T12:04:36;97373.69;;;12.85;81.39
70304;BME280;57712;48.752;11.348;2023-04-07T12:07:09;97367.09;;;12.95;81.93
70304;BME280;57712;48.752;11.348;2023-04-07T12:09:36;97366.47;;;13.16;87.55
70304;BME280;57712;48.752;11.348;2023-04-07T12:12:04;97370.34;;;12.64;81.65
70304;BME280;57712;48.752;11.348;2023-04-07T12:14:32;97378.44;;;12.55;86.99
70304;BME280;57712;48.752;11.348;2023-04-07T12:16:59;97371.97;;;13.04;81.20
70304;BME280;57712;48.752;11.348;2023-04-07T12:19:30;97369.03;;;13.23;86.84
70304;BME280;57712;48.752;11.348;2023-04-07T12:22:02;97361.38;;;12.89;81.33
70304;BME280;57712;48.752;11.348;2023-04-07T12:24:28;97362.38;;;12.95;80.72
70304;BME280;57712;48.752;11.348;2023-04-07T12:26:56;97370.56;;;13.37;81.80
70304;BME280;57712;48.752;11.348;2023-04-07T12:29:23;97369.81;;;13.37;83.26
70304;BME280;57712;48.752;11.348;2023-04-07T12:31:50;97367.81;;;13.50;83.58
70304;BME280;57712;48.752;11.348;2023-04-07T12:34:17;97362.97;;;13.54;81.91
70304;BME280;57712;48.752;11.348;2023-04-07T12:36:43;97359.34;;;13.57;77.32
70304;BME280;57712;48.752;11.348;2023-04-07T12:39:10;97366.66;;;13.85;75.50
70304;BME280;57712;48.752;11.348;2023-04-07T12:41:37;97353.47;;;13.80;72.62
70304;BME280;57712;48.752;11.348;2023-04-07T12:44:05;97359.16;;;13.99;76.84
70304;BME280;57712;48.752;11.348;2023-04-07T12:46:31;97366.34;;;13.83;77.94
70304;BME280;57712;48.752;11.348;2023-04-07T12:48:58;97356.00;;;13.75;72.71
70304;BME280;57712;48.752;11.348;2023-04-07T12:51:25;97354.72;;;13.67;70.08
70304;BME280;57712;48.752;11.348;2023-04-07T12:53:52;97354.59;;;13.57;73.75
70304;BME280;57712;48.752;11.348;2023-04-07T12:56:19;97352.81;;;13.76;73.13
70304;BME280;57712;48.752;11.348;2023-04-07T12:58:47;97360.88;;;13.20;74.30
70304;BME280;57712;48.752;11.348;2023-04-07T13:01:14;97353.94;;;13.41;74.14
70304;BME280;57712;48.752;11.348;2023-04-07T13:03:42;97362.50;;;13.17;76.87
70304;BME280;57712;48.752;11.348;2023-04-07T13:06:09;97351.81;;;12.94;76.88
70304;BME280;57712;48.752;11.348;2023-04-07T13:08:37;97355.81;;;13.44;78.49
70304;BME280;57712;48.752;11.348;2023-04-07T13:11:03;97354.94;;;13.60;77.60
70304;BME280;57712;48.752;11.348;2023-04-07T13:13:30;97349.41;;;13.60;76.12